sensor_id;sensor_type;location;lat;lon;timestamp;P1;durP1;ratioP1;P2;durP2;ratioP2
47531;SDS011;33273;52.254;7.988;2023-03-24T00:01:18;5.82;;;2.42;;
47531;SDS011;33273;52.254;7.988;2023-03-24T00:03:44;5.25;;;2.22;;
47531;SDS011;33273;52.254;7.988;2023-03-24T00:06:13;5.90;;;3.08;;
47531;SDS011;33273;52.254;7.988;2023-03-24T00:08:40;5.78;;;2.72;;
47531;SDS011;33273;52.254;7.988;2023-03-24T00:11:08;4.88;;;2.58;;
47531;SDS011;33273;52.254;7.988;2023-03-24T00:13:36;5.18;;;2.65;;
47531;SDS011;33273;52.254;7.988;2023-03-24T00:16:04;4.90;;;2.50;;
47531;SDS011;33273;52.254;7.988;2023-03-24T00:18:32;6.45;;;3.08;;
47531;SDS011;33273;52.254;7.988;2023-03-24T00:20:59;4.68;;;2.38;;
47531;SDS011;33273;52.254;7.988;2023-03-24T00:23:25;9.05;;;3.10;;
47531;SDS011;33273;52.254;7.988;2023-03-24T00:26:05;5.70;;;2.78;;
47531;SDS011;33273;52.254;7.988;2023-03-24T00:28:39;6.25;;;2.50;;
47531;SDS011;33273;52.254;7.988;2023-03-24T00:31:08;6.95;;;2.90;;
47531;SDS011;33273;52.254;7.988;2023-03-24T00:33:36;6.90;;;2.60;;
47531;SDS011;33273;52.254;7.988;2023-03-24T00:36:03;6.95;;;3.00;;
47531;SDS011;33273;52.254;7.988;2023-03-24T00:38:31;9.40;;;3.35;;
47531;SDS011;33273;52.254;7.988;2023-03-24T00:41:00;6.82;;;2.83;;
47531;SDS011;33273;52.254;7.988;2023-03-24T00:43:27;10.35;;;3.17;;
47531;SDS011;33273;52.254;7.988;2023-03-24T00:45:58;5.55;;;2.72;;
47531;SDS011;33273;52.254;7.988;2023-03-24T00:48:26;5.03;;;2.67;;
47531;SDS011;33273;52.254;7.988;2023-03-24T00:50:53;6.40;;;2.65;;
47531;SDS011;33273;52.254;7.988;2023-03-24T00:53:19;8.43;;;2.97;;
47531;SDS011;33273;52.254;7.988;2023-03-24T00:55:47;5.45;;;2.17;;
47531;SDS011;33273;52.254;7.988;2023-03-24T00:58:14;4.15;;;2.38;;
47531;SDS011;33273;52.254;7.988;2023-03-24T01:00:46;6.03;;;2.95;;
47531;SDS011;33273;52.254;7.988;2023-03-24T01:03:15;4.85;;;2.65;;
47531;SDS011;33273;52.254;7.988;2023-03-24T01:05:42;6.30;;;2.72;;
47531;SDS011;33273;52.254;7.988;2023-03-24T01:08:16;9.32;;;2.95;;
47531;SDS011;33273;52.254;7.988;2023-03-24T01:10:45;5.00;;;2.80;;
47531;SDS011;33273;52.254;7.988;2023-03-24T01:13:18;5.78;;;2.72;;
47531;SDS011;33273;52.254;7.988;2023-03-24T01:15:52;6.38;;;2.65;;
47531;SDS011;33273;52.254;7.988;2023-03-24T01:18:19;6.85;;;2.70;;
47531;SDS011;33273;52.254;7.988;2023-03-24T01:20:46;6.38;;;2.72;;
47531;SDS011;33273;52.254;7.988;2023-03-24T01:23:18;4.95;;;2.65;;
47531;SDS011;33273;52.254;7.988;2023-03-24T01:25:47;6.57;;;3.75;;
47531;SDS011;33273;52.254;7.988;2023-03-24T01:28:15;5.97;;;3.33;;
47531;SDS011;33273;52.254;7.988;2023-03-24T01:30:49;4.95;;;2.90;;
47531;SDS011;33273;52.254;7.988;2023-03-24T01:33:16;4.57;;;3.05;;
47531;SDS011;33273;52.254;7.988;2023-03-24T01:35:42;6.53;;;3.72;;
47531;SDS011;33273;52.254;7.988;2023-03-24T01:38:09;5.53;;;3.50;;
47531;SDS011;33273;52.254;7.988;2023-03-24T01:40:37;5.25;;;3.05;;
47531;SDS011;33273;52.254;7.988;2023-03-24T01:43:06;5.47;;;3.35;;
47531;SDS011;33273;52.254;7.988;2023-03-24T01:48:26;4.88;;;2.95;;
47531;SDS011;33273;52.254;7.988;2023-03-24T01:50:58;6.55;;;3.10;;
47531;SDS011;33273;52.254;7.988;2023-03-24T01:53:50;9.80;;;3.25;;
47531;SDS011;33273;52.254;7.988;2023-03-24T01:56:25;5.00;;;3.13;;
47531;SDS011;33273;52.254;7.988;2023-03-24T01:58:58;5.20;;;3.10;;
47531;SDS011;33273;52.254;7.988;2023-03-24T02:01:47;5.82;;;2.75;;
47531;SDS011;33273;52.254;7.988;2023-03-24T02:04:35;7.75;;;2.90;;
47531;SDS011;33273;52.254;7.988;2023-03-24T02:10:11;6.00;;;2.67;;
47531;SDS011;33273;52.254;7.988;2023-03-24T02:12:40;5.18;;;2.70;;
47531;SDS011;33273;52.254;7.988;2023-03-24T02:15:08;6.13;;;2.67;;
47531;SDS011;33273;52.254;7.988;2023-03-24T02:34:04;4.90;;;2.45;;
47531;SDS011;33273;52.254;7.988;2023-03-24T02:46:31;5.13;;;2.90;;
47531;SDS011;33273;52.254;7.988;2023-03-24T02:51:39;5.45;;;2.55;;
47531;SDS011;33273;52.254;7.988;2023-03-24T02:54:17;3.67;;;2.35;;
47531;SDS011;33273;52.254;7.988;2023-03-24T03:03:18;3.85;;;2.22;;
47531;SDS011;33273;52.254;7.988;2023-03-24T03:05:53;6.90;;;2.40;;
47531;SDS011;33273;52.254;7.988;2023-03-24T03:08:27;5.93;;;2.65;;
47531;SDS011;33273;52.254;7.988;2023-03-24T03:10:56;5.38;;;2.85;;
47531;SDS011;33273;52.254;7.988;2023-03-24T03:13:34;4.70;;;3.22;;
47531;SDS011;33273;52.254;7.988;2023-03-24T03:16:12;4.03;;;2.80;;
47531;SDS011;33273;52.254;7.988;2023-03-24T03:18:47;5.97;;;2.75;;
47531;SDS011;33273;52.254;7.988;2023-03-24T03:21:18;5.72;;;3.30;;
47531;SDS011;33273;52.254;7.988;2023-03-24T03:23:49;6.43;;;3.30;;
47531;SDS011;33273;52.254;7.988;2023-03-24T03:26:19;7.63;;;2.80;;
47531;SDS011;33273;52.254;7.988;2023-03-24T03:28:52;5.22;;;3.00;;
47531;SDS011;33273;52.254;7.988;2023-03-24T03:31:30;7.97;;;4.32;;
47531;SDS011;33273;52.254;7.988;2023-03-24T03:36:31;6.18;;;2.97;;
47531;SDS011;33273;52.254;7.988;2023-03-24T03:39:13;5.90;;;3.00;;
47531;SDS011;33273;52.254;7.988;2023-03-24T03:41:45;4.53;;;3.10;;
47531;SDS011;33273;52.254;7.988;2023-03-24T03:46:38;5.75;;;2.80;;
47531;SDS011;33273;52.254;7.988;2023-03-24T03:49:08;4.95;;;3.15;;
47531;SDS011;33273;52.254;7.988;2023-03-24T03:51:35;4.55;;;3.08;;
47531;SDS011;33273;52.254;7.988;2023-03-24T03:54:02;4.53;;;2.90;;
47531;SDS011;33273;52.254;7.988;2023-03-24T03:56:32;5.28;;;2.95;;
47531;SDS011;33273;52.254;7.988;2023-03-24T03:59:26;4.53;;;3.17;;
47531;SDS011;33273;52.254;7.988;2023-03-24T04:01:56;5.63;;;3.30;;
47531;SDS011;33273;52.254;7.988;2023-03-24T04:08:05;5.80;;;3.10;;
47531;SDS011;33273;52.254;7.988;2023-03-24T04:11:08;6.97;;;3.38;;
47531;SDS011;33273;52.254;7.988;2023-03-24T04:14:32;6.43;;;3.20;;
47531;SDS011;33273;52.254;7.988;2023-03-24T04:17:44;6.13;;;3.67;;
47531;SDS011;33273;52.254;7.988;2023-03-24T04:23:20;3.78;;;2.92;;
47531;SDS011;33273;52.254;7.988;2023-03-24T04:28:55;6.32;;;3.70;;
47531;SDS011;33273;52.254;7.988;2023-03-24T04:34:20;6.38;;;4.00;;
47531;SDS011;33273;52.254;7.988;2023-03-24T04:37:13;5.93;;;4.10;;
47531;SDS011;33273;52.254;7.988;2023-03-24T04:39:57;5.43;;;4.00;;
47531;SDS011;33273;52.254;7.988;2023-03-24T04:42:27;7.60;;;3.78;;
47531;SDS011;33273;52.254;7.988;2023-03-24T04:44:58;7.28;;;3.63;;
47531;SDS011;33273;52.254;7.988;2023-03-24T04:47:46;6.68;;;4.28;;
47531;SDS011;33273;52.254;7.988;2023-03-24T04:50:37;6.95;;;4.45;;
47531;SDS011;33273;52.254;7.988;2023-03-24T04:53:09;6.70;;;5.15;;
47531;SDS011;33273;52.254;7.988;2023-03-24T04:58:12;6.15;;;5.03;;
47531;SDS011;33273;52.254;7.988;2023-03-24T05:00:39;6.60;;;4.63;;
47531;SDS011;33273;52.254;7.988;2023-03-24T05:03:08;7.28;;;6.13;;
47531;SDS011;33273;52.254;7.988;2023-03-24T05:05:39;6.30;;;5.13;;
47531;SDS011;33273;52.254;7.988;2023-03-24T05:08:16;7.30;;;5.32;;
47531;SDS011;33273;52.254;7.988;2023-03-24T05:10:43;6.68;;;5.60;;
47531;SDS011;33273;52.254;7.988;2023-03-24T05:13:10;7.50;;;5.57;;
47531;SDS011;33273;52.254;7.988;2023-03-24T05:15:45;7.53;;;5.70;;
47531;SDS011;33273;52.254;7.988;2023-03-24T05:18:37;7.72;;;6.40;;
47531;SDS011;33273;52.254;7.988;2023-03-24T05:23:33;5.90;;;4.78;;
47531;SDS011;33273;52.254;7.988;2023-03-24T05:25:59;8.55;;;5.07;;
47531;SDS011;33273;52.254;7.988;2023-03-24T05:28:29;5.50;;;4.80;;
47531;SDS011;33273;52.254;7.988;2023-03-24T05:30:56;6.50;;;5.10;;
47531;SDS011;33273;52.254;7.988;2023-03-24T05:33:39;8.75;;;5.50;;
47531;SDS011;33273;52.254;7.988;2023-03-24T05:36:08;6.75;;;5.18;;
47531;SDS011;33273;52.254;7.988;2023-03-24T05:38:38;5.47;;;3.60;;
47531;SDS011;33273;52.254;7.988;2023-03-24T05:41:05;4.50;;;2.90;;
47531;SDS011;33273;52.254;7.988;2023-03-24T05:43:36;4.07;;;2.45;;
47531;SDS011;33273;52.254;7.988;2023-03-24T05:46:13;5.15;;;2.70;;
47531;SDS011;33273;52.254;7.988;2023-03-24T05:48:40;3.55;;;2.75;;
47531;SDS011;33273;52.254;7.988;2023-03-24T05:51:10;4.38;;;2.35;;
47531;SDS011;33273;52.254;7.988;2023-03-24T05:53:36;5.40;;;2.53;;
47531;SDS011;33273;52.254;7.988;2023-03-24T05:56:14;6.97;;;2.13;;
47531;SDS011;33273;52.254;7.988;2023-03-24T05:59:06;2.78;;;1.88;;
47531;SDS011;33273;52.254;7.988;2023-03-24T06:01:51;3.67;;;1.98;;
47531;SDS011;33273;52.254;7.988;2023-03-24T06:04:42;3.35;;;1.77;;
47531;SDS011;33273;52.254;7.988;2023-03-24T06:07:13;6.55;;;2.05;;
47531;SDS011;33273;52.254;7.988;2023-03-24T06:09:43;6.57;;;2.10;;
47531;SDS011;33273;52.254;7.988;2023-03-24T06:12:20;3.00;;;1.70;;
47531;SDS011;33273;52.254;7.988;2023-03-24T06:14:52;2.40;;;1.77;;
47531;SDS011;33273;52.254;7.988;2023-03-24T06:17:17;4.30;;;2.10;;
47531;SDS011;33273;52.254;7.988;2023-03-24T06:19:49;3.38;;;1.85;;
47531;SDS011;33273;52.254;7.988;2023-03-24T06:22:36;3.33;;;1.90;;
47531;SDS011;33273;52.254;7.988;2023-03-24T06:25:09;4.22;;;2.05;;
47531;SDS011;33273;52.254;7.988;2023-03-24T06:27:37;4.72;;;1.88;;
47531;SDS011;33273;52.254;7.988;2023-03-24T06:30:07;5.97;;;1.90;;
47531;SDS011;33273;52.254;7.988;2023-03-24T06:32:33;4.72;;;2.00;;
47531;SDS011;33273;52.254;7.988;2023-03-24T06:35:00;7.90;;;1.77;;
47531;SDS011;33273;52.254;7.988;2023-03-24T06:37:33;5.43;;;1.80;;
47531;SDS011;33273;52.254;7.988;2023-03-24T06:40:01;4.43;;;1.73;;
47531;SDS011;33273;52.254;7.988;2023-03-24T06:42:31;6.53;;;1.90;;
47531;SDS011;33273;52.254;7.988;2023-03-24T06:44:57;3.43;;;1.73;;
47531;SDS011;33273;52.254;7.988;2023-03-24T06:47:22;4.05;;;1.95;;
47531;SDS011;33273;52.254;7.988;2023-03-24T06:49:49;7.28;;;2.15;;
47531;SDS011;33273;52.254;7.988;2023-03-24T06:52:15;6.63;;;2.75;;
47531;SDS011;33273;52.254;7.988;2023-03-24T06:54:41;5.53;;;1.70;;
47531;SDS011;33273;52.254;7.988;2023-03-24T06:57:07;5.88;;;1.88;;
47531;SDS011;33273;52.254;7.988;2023-03-24T07:00:11;4.78;;;2.10;;
47531;SDS011;33273;52.254;7.988;2023-03-24T07:02:49;6.53;;;1.90;;
47531;SDS011;33273;52.254;7.988;2023-03-24T07:05:17;5.20;;;2.67;;
47531;SDS011;33273;52.254;7.988;2023-03-24T07:07:43;4.57;;;1.90;;
47531;SDS011;33273;52.254;7.988;2023-03-24T07:10:27;11.50;;;2.08;;
47531;SDS011;33273;52.254;7.988;2023-03-24T07:12:53;7.40;;;2.03;;
47531;SDS011;33273;52.254;7.988;2023-03-24T07:15:19;9.67;;;2.40;;
47531;SDS011;33273;52.254;7.988;2023-03-24T07:17:45;6.47;;;2.15;;
47531;SDS011;33273;52.254;7.988;2023-03-24T07:20:30;7.47;;;2.08;;
47531;SDS011;33273;52.254;7.988;2023-03-24T07:23:06;4.68;;;1.85;;
47531;SDS011;33273;52.254;7.988;2023-03-24T07:25:55;7.40;;;1.92;;
47531;SDS011;33273;52.254;7.988;2023-03-24T07:28:46;8.02;;;2.40;;
47531;SDS011;33273;52.254;7.988;2023-03-24T07:31:39;8.32;;;2.70;;
47531;SDS011;33273;52.254;7.988;2023-03-24T07:34:08;8.88;;;2.58;;
47531;SDS011;33273;52.254;7.988;2023-03-24T07:36:36;8.00;;;2.70;;
47531;SDS011;33273;52.254;7.988;2023-03-24T07:39:04;7.13;;;2.70;;
47531;SDS011;33273;52.254;7.988;2023-03-24T07:41:33;10.88;;;3.08;;
47531;SDS011;33273;52.254;7.988;2023-03-24T07:44:04;9.82;;;3.13;;
47531;SDS011;33273;52.254;7.988;2023-03-24T07:46:39;10.38;;;2.80;;
47531;SDS011;33273;52.254;7.988;2023-03-24T07:49:05;10.82;;;2.70;;
47531;SDS011;33273;52.254;7.988;2023-03-24T07:51:32;8.70;;;3.40;;
47531;SDS011;33273;52.254;7.988;2023-03-24T07:54:12;9.18;;;3.80;;
47531;SDS011;33273;52.254;7.988;2023-03-24T07:56:43;13.00;;;3.22;;
47531;SDS011;33273;52.254;7.988;2023-03-24T07:59:10;13.50;;;4.13;;
47531;SDS011;33273;52.254;7.988;2023-03-24T08:01:59;10.93;;;3.38;;
47531;SDS011;33273;52.254;7.988;2023-03-24T08:04:44;12.50;;;3.85;;
47531;SDS011;33273;52.254;7.988;2023-03-24T08:07:43;9.77;;;3.20;;
47531;SDS011;33273;52.254;7.988;2023-03-24T08:10:18;8.00;;;3.22;;
47531;SDS011;33273;52.254;7.988;2023-03-24T08:12:46;13.52;;;3.60;;
47531;SDS011;33273;52.254;7.988;2023-03-24T08:15:12;9.90;;;3.35;;
47531;SDS011;33273;52.254;7.988;2023-03-24T08:17:38;15.10;;;4.22;;
47531;SDS011;33273;52.254;7.988;2023-03-24T08:20:07;11.02;;;3.42;;
47531;SDS011;33273;52.254;7.988;2023-03-24T08:22:39;11.82;;;3.70;;
47531;SDS011;33273;52.254;7.988;2023-03-24T08:25:17;10.98;;;3.97;;
47531;SDS011;33273;52.254;7.988;2023-03-24T08:27:45;8.65;;;3.35;;
47531;SDS011;33273;52.254;7.988;2023-03-24T08:30:13;9.75;;;3.50;;
47531;SDS011;33273;52.254;7.988;2023-03-24T08:32:59;12.13;;;3.70;;
47531;SDS011;33273;52.254;7.988;2023-03-24T08:35:27;9.68;;;3.00;;
47531;SDS011;33273;52.254;7.988;2023-03-24T08:37:55;7.90;;;3.95;;
47531;SDS011;33273;52.254;7.988;2023-03-24T08:40:23;9.88;;;3.03;;
47531;SDS011;33273;52.254;7.988;2023-03-24T08:42:52;8.85;;;3.13;;
47531;SDS011;33273;52.254;7.988;2023-03-24T08:45:24;12.32;;;3.97;;
47531;SDS011;33273;52.254;7.988;2023-03-24T08:47:52;8.15;;;3.35;;
47531;SDS011;33273;52.254;7.988;2023-03-24T08:50:20;10.27;;;4.68;;
47531;SDS011;33273;52.254;7.988;2023-03-24T08:56:30;7.70;;;5.30;;
47531;SDS011;33273;52.254;7.988;2023-03-24T08:58:56;10.43;;;4.32;;
47531;SDS011;33273;52.254;7.988;2023-03-24T09:01:22;12.32;;;4.22;;
47531;SDS011;33273;52.254;7.988;2023-03-24T09:03:48;8.95;;;4.10;;
47531;SDS011;33273;52.254;7.988;2023-03-24T09:06:17;10.55;;;3.78;;
47531;SDS011;33273;52.254;7.988;2023-03-24T09:08:43;10.33;;;3.93;;
47531;SDS011;33273;52.254;7.988;2023-03-24T09:11:13;9.88;;;3.92;;
47531;SDS011;33273;52.254;7.988;2023-03-24T09:13:41;9.68;;;3.53;;
47531;SDS011;33273;52.254;7.988;2023-03-24T09:16:07;10.68;;;4.22;;
47531;SDS011;33273;52.254;7.988;2023-03-24T09:18:34;7.53;;;3.55;;
47531;SDS011;33273;52.254;7.988;2023-03-24T09:21:00;7.57;;;3.80;;
47531;SDS011;33273;52.254;7.988;2023-03-24T09:23:26;8.15;;;3.25;;
47531;SDS011;33273;52.254;7.988;2023-03-24T09:25:53;6.43;;;2.83;;
47531;SDS011;33273;52.254;7.988;2023-03-24T09:28:19;6.95;;;2.92;;
47531;SDS011;33273;52.254;7.988;2023-03-24T09:30:47;8.23;;;3.58;;
47531;SDS011;33273;52.254;7.988;2023-03-24T09:33:13;8.98;;;4.13;;
47531;SDS011;33273;52.254;7.988;2023-03-24T09:35:39;10.45;;;3.33;;
47531;SDS011;33273;52.254;7.988;2023-03-24T09:38:06;7.45;;;3.20;;
47531;SDS011;33273;52.254;7.988;2023-03-24T09:40:34;8.65;;;3.08;;
47531;SDS011;33273;52.254;7.988;2023-03-24T09:45:43;9.63;;;3.45;;
47531;SDS011;33273;52.254;7.988;2023-03-24T09:48:30;8.00;;;3.13;;
47531;SDS011;33273;52.254;7.988;2023-03-24T09:56:28;10.90;;;3.30;;
47531;SDS011;33273;52.254;7.988;2023-03-24T09:59:01;7.47;;;2.83;;
47531;SDS011;33273;52.254;7.988;2023-03-24T10:01:41;7.78;;;3.00;;
47531;SDS011;33273;52.254;7.988;2023-03-24T10:04:15;6.32;;;2.58;;
47531;SDS011;33273;52.254;7.988;2023-03-24T10:06:43;15.65;;;3.28;;
47531;SDS011;33273;52.254;7.988;2023-03-24T10:17:39;10.20;;;2.88;;
47531;SDS011;33273;52.254;7.988;2023-03-24T10:29:16;10.80;;;2.78;;
47531;SDS011;33273;52.254;7.988;2023-03-24T10:31:49;8.35;;;2.42;;
47531;SDS011;33273;52.254;7.988;2023-03-24T10:34:18;8.68;;;2.42;;
47531;SDS011;33273;52.254;7.988;2023-03-24T10:36:46;5.28;;;2.20;;
47531;SDS011;33273;52.254;7.988;2023-03-24T10:39:13;7.18;;;2.63;;
47531;SDS011;33273;52.254;7.988;2023-03-24T10:41:40;9.73;;;2.45;;
47531;SDS011;33273;52.254;7.988;2023-03-24T10:44:08;7.80;;;2.60;;
47531;SDS011;33273;52.254;7.988;2023-03-24T10:46:35;8.30;;;2.63;;
47531;SDS011;33273;52.254;7.988;2023-03-24T10:49:12;8.52;;;2.20;;
47531;SDS011;33273;52.254;7.988;2023-03-24T10:51:48;9.65;;;2.03;;
47531;SDS011;33273;52.254;7.988;2023-03-24T10:54:20;5.65;;;2.75;;
47531;SDS011;33273;52.254;7.988;2023-03-24T10:59:26;6.95;;;2.08;;
47531;SDS011;33273;52.254;7.988;2023-03-24T11:02:35;7.93;;;2.47;;
47531;SDS011;33273;52.254;7.988;2023-03-24T11:05:24;9.88;;;2.97;;
47531;SDS011;33273;52.254;7.988;2023-03-24T11:07:53;8.65;;;2.47;;
47531;SDS011;33273;52.254;7.988;2023-03-24T11:10:42;5.63;;;2.33;;
47531;SDS011;33273;52.254;7.988;2023-03-24T11:13:42;11.60;;;2.33;;
47531;SDS011;33273;52.254;7.988;2023-03-24T11:16:11;9.80;;;2.40;;
47531;SDS011;33273;52.254;7.988;2023-03-24T11:18:55;8.32;;;2.10;;
47531;SDS011;33273;52.254;7.988;2023-03-24T11:21:21;7.22;;;2.05;;
47531;SDS011;33273;52.254;7.988;2023-03-24T11:23:47;5.38;;;2.20;;
47531;SDS011;33273;52.254;7.988;2023-03-24T11:26:18;10.35;;;1.90;;
47531;SDS011;33273;52.254;7.988;2023-03-24T11:28:48;5.55;;;2.05;;
47531;SDS011;33273;52.254;7.988;2023-03-24T11:31:35;9.73;;;2.63;;
47531;SDS011;33273;52.254;7.988;2023-03-24T11:36:41;5.88;;;1.95;;
47531;SDS011;33273;52.254;7.988;2023-03-24T11:42:29;8.40;;;2.00;;
47531;SDS011;33273;52.254;7.988;2023-03-24T11:50:34;8.60;;;2.40;;
47531;SDS011;33273;52.254;7.988;2023-03-24T11:58:30;10.13;;;2.30;;
47531;SDS011;33273;52.254;7.988;2023-03-24T12:01:11;6.05;;;2.20;;
47531;SDS011;33273;52.254;7.988;2023-03-24T12:06:56;6.80;;;2.45;;
47531;SDS011;33273;52.254;7.988;2023-03-24T12:15:04;7.50;;;1.98;;
47531;SDS011;33273;52.254;7.988;2023-03-24T12:20:30;7.55;;;2.40;;
47531;SDS011;33273;52.254;7.988;2023-03-24T12:23:33;8.50;;;2.28;;
47531;SDS011;33273;52.254;7.988;2023-03-24T12:26:30;7.53;;;2.72;;
47531;SDS011;33273;52.254;7.988;2023-03-24T12:31:28;5.15;;;2.13;;
47531;SDS011;33273;52.254;7.988;2023-03-24T12:34:15;4.07;;;2.22;;
47531;SDS011;33273;52.254;7.988;2023-03-24T12:42:25;6.05;;;2.22;;
47531;SDS011;33273;52.254;7.988;2023-03-24T12:45:53;6.43;;;2.65;;
47531;SDS011;33273;52.254;7.988;2023-03-24T12:51:06;7.75;;;2.20;;
47531;SDS011;33273;52.254;7.988;2023-03-24T12:53:45;7.95;;;2.17;;
47531;SDS011;33273;52.254;7.988;2023-03-24T12:56:42;6.53;;;2.33;;
47531;SDS011;33273;52.254;7.988;2023-03-24T12:59:12;5.00;;;2.10;;
47531;SDS011;33273;52.254;7.988;2023-03-24T13:01:49;4.88;;;1.80;;
47531;SDS011;33273;52.254;7.988;2023-03-24T13:04:35;3.75;;;1.40;;
47531;SDS011;33273;52.254;7.988;2023-03-24T13:07:05;3.50;;;1.60;;
47531;SDS011;33273;52.254;7.988;2023-03-24T13:09:56;4.88;;;1.48;;
47531;SDS011;33273;52.254;7.988;2023-03-24T13:15:50;3.70;;;1.25;;
47531;SDS011;33273;52.254;7.988;2023-03-24T13:23:43;2.42;;;1.17;;
47531;SDS011;33273;52.254;7.988;2023-03-24T13:37:25;5.75;;;1.80;;
47531;SDS011;33273;52.254;7.988;2023-03-24T13:39:59;6.95;;;1.65;;
47531;SDS011;33273;52.254;7.988;2023-03-24T13:44:59;4.00;;;1.70;;
47531;SDS011;33273;52.254;7.988;2023-03-24T13:47:45;4.78;;;1.80;;
47531;SDS011;33273;52.254;7.988;2023-03-24T13:50:18;4.43;;;1.90;;
47531;SDS011;33273;52.254;7.988;2023-03-24T13:52:47;5.70;;;1.77;;
47531;SDS011;33273;52.254;7.988;2023-03-24T13:55:19;5.68;;;1.90;;
47531;SDS011;33273;52.254;7.988;2023-03-24T13:57:52;4.28;;;1.67;;
47531;SDS011;33273;52.254;7.988;2023-03-24T14:03:32;6.15;;;1.88;;
47531;SDS011;33273;52.254;7.988;2023-03-24T14:05:59;6.45;;;2.10;;
47531;SDS011;33273;52.254;7.988;2023-03-24T14:08:42;4.13;;;1.90;;
47531;SDS011;33273;52.254;7.988;2023-03-24T14:11:48;6.95;;;1.95;;
47531;SDS011;33273;52.254;7.988;2023-03-24T14:14:27;6.72;;;2.35;;
47531;SDS011;33273;52.254;7.988;2023-03-24T14:19:35;10.63;;;2.97;;
47531;SDS011;33273;52.254;7.988;2023-03-24T14:22:21;8.32;;;2.90;;
47531;SDS011;33273;52.254;7.988;2023-03-24T14:25:00;7.28;;;2.10;;
47531;SDS011;33273;52.254;7.988;2023-03-24T14:27:32;5.10;;;2.60;;
47531;SDS011;33273;52.254;7.988;2023-03-24T14:30:18;9.63;;;2.55;;
47531;SDS011;33273;52.254;7.988;2023-03-24T14:32:49;5.68;;;2.30;;
47531;SDS011;33273;52.254;7.988;2023-03-24T14:35:41;8.85;;;3.00;;
47531;SDS011;33273;52.254;7.988;2023-03-24T14:38:20;7.78;;;2.50;;
47531;SDS011;33273;52.254;7.988;2023-03-24T14:40:49;8.43;;;2.38;;
47531;SDS011;33273;52.254;7.988;2023-03-24T14:43:27;7.95;;;2.13;;
47531;SDS011;33273;52.254;7.988;2023-03-24T14:54:42;9.38;;;2.80;;
47531;SDS011;33273;52.254;7.988;2023-03-24T14:57:15;4.28;;;1.58;;
47531;SDS011;33273;52.254;7.988;2023-03-24T15:02:46;2.65;;;1.30;;
47531;SDS011;33273;52.254;7.988;2023-03-24T15:08:00;6.28;;;1.63;;
47531;SDS011;33273;52.254;7.988;2023-03-24T15:16:00;3.88;;;1.45;;
47531;SDS011;33273;52.254;7.988;2023-03-24T15:18:33;3.45;;;1.67;;
47531;SDS011;33273;52.254;7.988;2023-03-24T15:20:59;4.68;;;1.60;;
47531;SDS011;33273;52.254;7.988;2023-03-24T15:23:26;3.23;;;1.37;;
47531;SDS011;33273;52.254;7.988;2023-03-24T15:25:53;3.42;;;1.50;;
47531;SDS011;33273;52.254;7.988;2023-03-24T15:28:21;2.25;;;1.17;;
47531;SDS011;33273;52.254;7.988;2023-03-24T15:30:54;5.35;;;1.30;;
47531;SDS011;33273;52.254;7.988;2023-03-24T15:33:23;4.78;;;1.45;;
47531;SDS011;33273;52.254;7.988;2023-03-24T15:35:54;3.17;;;1.38;;
47531;SDS011;33273;52.254;7.988;2023-03-24T15:38:29;3.53;;;1.73;;
47531;SDS011;33273;52.254;7.988;2023-03-24T15:40:58;3.33;;;1.55;;
47531;SDS011;33273;52.254;7.988;2023-03-24T15:43:31;3.33;;;1.17;;
47531;SDS011;33273;52.254;7.988;2023-03-24T15:45:58;2.30;;;1.40;;
47531;SDS011;33273;52.254;7.988;2023-03-24T15:48:29;6.35;;;1.80;;
47531;SDS011;33273;52.254;7.988;2023-03-24T15:51:03;2.92;;;1.58;;
47531;SDS011;33273;52.254;7.988;2023-03-24T15:53:40;3.35;;;1.40;;
47531;SDS011;33273;52.254;7.988;2023-03-24T15:56:19;6.53;;;1.88;;
47531;SDS011;33273;52.254;7.988;2023-03-24T15:58:50;3.22;;;1.50;;
47531;SDS011;33273;52.254;7.988;2023-03-24T16:01:27;6.20;;;1.83;;
47531;SDS011;33273;52.254;7.988;2023-03-24T16:04:01;3.85;;;1.50;;
47531;SDS011;33273;52.254;7.988;2023-03-24T16:06:32;5.13;;;1.63;;
47531;SDS011;33273;52.254;7.988;2023-03-24T16:09:05;4.07;;;1.70;;
47531;SDS011;33273;52.254;7.988;2023-03-24T16:11:33;4.20;;;1.85;;
47531;SDS011;33273;52.254;7.988;2023-03-24T16:13:59;3.77;;;1.60;;
47531;SDS011;33273;52.254;7.988;2023-03-24T16:16:27;4.10;;;1.77;;
47531;SDS011;33273;52.254;7.988;2023-03-24T16:18:54;3.75;;;2.38;;
47531;SDS011;33273;52.254;7.988;2023-03-24T16:21:23;3.38;;;1.60;;
47531;SDS011;33273;52.254;7.988;2023-03-24T16:23:51;2.55;;;1.55;;
47531;SDS011;33273;52.254;7.988;2023-03-24T16:26:19;5.45;;;1.90;;
47531;SDS011;33273;52.254;7.988;2023-03-24T16:28:47;4.30;;;1.73;;
47531;SDS011;33273;52.254;7.988;2023-03-24T16:31:31;5.25;;;1.60;;
47531;SDS011;33273;52.254;7.988;2023-03-24T16:33:59;4.53;;;2.35;;
47531;SDS011;33273;52.254;7.988;2023-03-24T16:36:26;8.15;;;2.05;;
47531;SDS011;33273;52.254;7.988;2023-03-24T16:41:20;3.88;;;1.55;;
47531;SDS011;33273;52.254;7.988;2023-03-24T16:43:47;5.35;;;1.75;;
47531;SDS011;33273;52.254;7.988;2023-03-24T16:48:54;2.90;;;1.50;;
47531;SDS011;33273;52.254;7.988;2023-03-24T16:51:23;2.78;;;1.40;;
47531;SDS011;33273;52.254;7.988;2023-03-24T16:53:49;3.70;;;1.38;;
47531;SDS011;33273;52.254;7.988;2023-03-24T16:56:16;3.17;;;1.30;;
47531;SDS011;33273;52.254;7.988;2023-03-24T16:58:44;3.00;;;1.77;;
47531;SDS011;33273;52.254;7.988;2023-03-24T17:01:16;3.72;;;1.40;;
47531;SDS011;33273;52.254;7.988;2023-03-24T17:03:52;4.07;;;1.67;;
47531;SDS011;33273;52.254;7.988;2023-03-24T17:06:19;2.65;;;1.55;;
47531;SDS011;33273;52.254;7.988;2023-03-24T17:08:45;2.63;;;1.50;;
47531;SDS011;33273;52.254;7.988;2023-03-24T17:11:11;3.28;;;1.50;;
47531;SDS011;33273;52.254;7.988;2023-03-24T17:13:38;7.38;;;2.05;;
47531;SDS011;33273;52.254;7.988;2023-03-24T17:16:04;4.05;;;1.38;;
47531;SDS011;33273;52.254;7.988;2023-03-24T17:18:34;4.47;;;1.80;;
47531;SDS011;33273;52.254;7.988;2023-03-24T17:21:13;5.88;;;2.75;;
47531;SDS011;33273;52.254;7.988;2023-03-24T17:23:42;6.95;;;2.28;;
47531;SDS011;33273;52.254;7.988;2023-03-24T17:26:12;2.58;;;1.40;;
47531;SDS011;33273;52.254;7.988;2023-03-24T17:28:38;3.72;;;1.80;;
47531;SDS011;33273;52.254;7.988;2023-03-24T17:31:04;5.30;;;2.05;;
47531;SDS011;33273;52.254;7.988;2023-03-24T17:33:30;3.53;;;1.90;;
47531;SDS011;33273;52.254;7.988;2023-03-24T17:35:56;3.37;;;1.80;;
47531;SDS011;33273;52.254;7.988;2023-03-24T17:38:22;5.77;;;1.97;;
47531;SDS011;33273;52.254;7.988;2023-03-24T17:40:54;6.68;;;1.98;;
47531;SDS011;33273;52.254;7.988;2023-03-24T17:43:28;6.38;;;2.00;;
47531;SDS011;33273;52.254;7.988;2023-03-24T17:48:24;6.20;;;1.65;;
47531;SDS011;33273;52.254;7.988;2023-03-24T17:50:52;4.57;;;1.27;;
47531;SDS011;33273;52.254;7.988;2023-03-24T17:53:20;3.67;;;1.23;;
47531;SDS011;33273;52.254;7.988;2023-03-24T17:55:55;4.50;;;1.70;;
47531;SDS011;33273;52.254;7.988;2023-03-24T17:58:23;5.97;;;1.67;;
47531;SDS011;33273;52.254;7.988;2023-03-24T18:00:51;4.10;;;1.70;;
47531;SDS011;33273;52.254;7.988;2023-03-24T18:03:17;3.80;;;1.83;;
47531;SDS011;33273;52.254;7.988;2023-03-24T18:05:43;3.30;;;1.58;;
47531;SDS011;33273;52.254;7.988;2023-03-24T18:08:09;3.50;;;1.40;;
47531;SDS011;33273;52.254;7.988;2023-03-24T18:13:02;4.05;;;1.50;;
47531;SDS011;33273;52.254;7.988;2023-03-24T18:15:29;3.70;;;1.70;;
47531;SDS011;33273;52.254;7.988;2023-03-24T18:17:56;5.47;;;1.75;;
47531;SDS011;33273;52.254;7.988;2023-03-24T18:20:22;2.97;;;1.48;;
47531;SDS011;33273;52.254;7.988;2023-03-24T18:22:48;4.05;;;2.30;;
47531;SDS011;33273;52.254;7.988;2023-03-24T18:25:14;6.57;;;1.67;;
47531;SDS011;33273;52.254;7.988;2023-03-24T18:27:40;3.75;;;1.85;;
47531;SDS011;33273;52.254;7.988;2023-03-24T18:30:08;4.45;;;1.45;;
47531;SDS011;33273;52.254;7.988;2023-03-24T18:32:36;6.05;;;1.83;;